sensor_id;sensor_type;location;lat;lon;timestamp;temperature;humidity
58568;DHT22;44354;46.192;-1.076;2023-03-01T00:01:34;-1.00;99.90
58568;DHT22;44354;46.192;-1.076;2023-03-01T00:03:59;-1.00;99.90
58568;DHT22;44354;46.192;-1.076;2023-03-01T00:06:26;-1.00;99.90
58568;DHT22;44354;46.192;-1.076;2023-03-01T00:08:52;-1.00;99.90
58568;DHT22;44354;46.192;-1.076;2023-03-01T00:13:46;-1.00;99.90
58568;DHT22;44354;46.192;-1.076;2023-03-01T00:16:15;-1.00;99.90
58568;DHT22;44354;46.192;-1.076;2023-03-01T00:18:41;-1.10;99.90
58568;DHT22;44354;46.192;-1.076;2023-03-01T00:21:07;-1.10;99.90
58568;DHT22;44354;46.192;-1.076;2023-03-01T00:23:37;-1.00;99.90
58568;DHT22;44354;46.192;-1.076;2023-03-01T00:26:06;-1.00;99.90
58568;DHT22;44354;46.192;-1.076;2023-03-01T00:28:32;-1.00;99.90
58568;DHT22;44354;46.192;-1.076;2023-03-01T00:31:14;-1.00;99.90
58568;DHT22;44354;46.192;-1.076;2023-03-01T00:33:40;-1.00;99.90
58568;DHT22;44354;46.192;-1.076;2023-03-01T00:36:06;-1.10;99.90
58568;DHT22;44354;46.192;-1.076;2023-03-01T00:38:37;-1.00;99.90
58568;DHT22;44354;46.192;-1.076;2023-03-01T00:41:04;-0.90;99.90
58568;DHT22;44354;46.192;-1.076;2023-03-01T00:43:31;-0.90;99.90
58568;DHT22;44354;46.192;-1.076;2023-03-01T00:46:10;-0.80;99.90
58568;DHT22;44354;46.192;-1.076;2023-03-01T00:48:37;-0.90;99.90
58568;DHT22;44354;46.192;-1.076;2023-03-01T00:51:13;-0.80;99.90
58568;DHT22;44354;46.192;-1.076;2023-03-01T00:53:40;-0.90;99.90
58568;DHT22;44354;46.192;-1.076;2023-03-01T00:56:07;-0.90;99.90
58568;DHT22;44354;46.192;-1.076;2023-03-01T00:58:33;-0.90;99.90
58568;DHT22;44354;46.192;-1.076;2023-03-01T01:01:00;-1.00;99.90
58568;DHT22;44354;46.192;-1.076;2023-03-01T01:03:26;-0.90;99.90
58568;DHT22;44354;46.192;-1.076;2023-03-01T01:05:52;-1.00;99.90
58568;DHT22;44354;46.192;-1.076;2023-03-01T01:08:19;-1.00;99.90
58568;DHT22;44354;46.192;-1.076;2023-03-01T01:10:45;-1.10;99.90
58568;DHT22;44354;46.192;-1.076;2023-03-01T01:13:12;-1.10;99.90
58568;DHT22;44354;46.192;-1.076;2023-03-01T01:15:38;-1.10;99.90
58568;DHT22;44354;46.192;-1.076;2023-03-01T01:18:04;-1.10;99.90
58568;DHT22;44354;46.192;-1.076;2023-03-01T01:20:30;-1.20;99.90
58568;DHT22;44354;46.192;-1.076;2023-03-01T01:22:56;-1.10;99.90
58568;DHT22;44354;46.192;-1.076;2023-03-01T01:25:30;-1.10;99.90
58568;DHT22;44354;46.192;-1.076;2023-03-01T01:27:56;-1.10;99.90
58568;DHT22;44354;46.192;-1.076;2023-03-01T01:30:21;-1.10;99.90
58568;DHT22;44354;46.192;-1.076;2023-03-01T01:32:47;-1.10;99.90
58568;DHT22;44354;46.192;-1.076;2023-03-01T01:35:13;-1.00;99.90
58568;DHT22;44354;46.192;-1.076;2023-03-01T01:37:38;-0.90;99.90
58568;DHT22;44354;46.192;-1.076;2023-03-01T01:40:05;-0.90;99.90
58568;DHT22;44354;46.192;-1.076;2023-03-01T01:42:30;-0.90;99.90
58568;DHT22;44354;46.192;-1.076;2023-03-01T01:45:29;-0.90;99.90
58568;DHT22;44354;46.192;-1.076;2023-03-01T01:47:59;-0.90;99.90
58568;DHT22;44354;46.192;-1.076;2023-03-01T01:50:25;-0.90;99.90
58568;DHT22;44354;46.192;-1.076;2023-03-01T01:52:52;-0.90;99.90
58568;DHT22;44354;46.192;-1.076;2023-03-01T01:55:24;-0.90;99.90
58568;DHT22;44354;46.192;-1.076;2023-03-01T01:57:56;-0.90;99.90
58568;DHT22;44354;46.192;-1.076;2023-03-01T02:00:26;-0.90;99.90
58568;DHT22;44354;46.192;-1.076;2023-03-01T02:02:59;-0.90;99.90
58568;DHT22;44354;46.192;-1.076;2023-03-01T02:07:59;-0.80;99.90
58568;DHT22;44354;46.192;-1.076;2023-03-01T02:10:25;-0.80;99.90
58568;DHT22;44354;46.192;-1.076;2023-03-01T02:12:54;-0.80;99.90
58568;DHT22;44354;46.192;-1.076;2023-03-01T02:15:22;-0.80;99.90
58568;DHT22;44354;46.192;-1.076;2023-03-01T02:17:48;-0.80;99.90
58568;DHT22;44354;46.192;-1.076;2023-03-01T02:20:27;-0.80;99.90
58568;DHT22;44354;46.192;-1.076;2023-03-01T02:22:56;-0.80;99.90
58568;DHT22;44354;46.192;-1.076;2023-03-01T02:26:25;-0.70;99.90
58568;DHT22;44354;46.192;-1.076;2023-03-01T02:28:35;-0.80;99.90
58568;DHT22;44354;46.192;-1.076;2023-03-01T02:31:09;-0.70;99.90
58568;DHT22;44354;46.192;-1.076;2023-03-01T02:33:54;-0.70;99.90
58568;DHT22;44354;46.192;-1.076;2023-03-01T02:36:31;-0.60;99.90
58568;DHT22;44354;46.192;-1.076;2023-03-01T02:39:01;-0.60;99.90
58568;DHT22;44354;46.192;-1.076;2023-03-01T02:41:35;-0.70;99.90
58568;DHT22;44354;46.192;-1.076;2023-03-01T02:44:04;-0.60;99.90
58568;DHT22;44354;46.192;-1.076;2023-03-01T02:46:30;-0.60;99.90
58568;DHT22;44354;46.192;-1.076;2023-03-01T02:48:58;-0.60;99.90
58568;DHT22;44354;46.192;-1.076;2023-03-01T02:51:36;-0.60;99.90
58568;DHT22;44354;46.192;-1.076;2023-03-01T02:57:08;-0.60;99.90
58568;DHT22;44354;46.192;-1.076;2023-03-01T02:59:36;-0.50;99.90
58568;DHT22;44354;46.192;-1.076;2023-03-01T03:02:18;-0.50;99.90
58568;DHT22;44354;46.192;-1.076;2023-03-01T03:04:46;-0.40;99.90
58568;DHT22;44354;46.192;-1.076;2023-03-01T03:07:12;-0.40;99.90
58568;DHT22;44354;46.192;-1.076;2023-03-01T03:09:37;-0.40;99.90
58568;DHT22;44354;46.192;-1.076;2023-03-01T03:12:03;-0.40;99.90
58568;DHT22;44354;46.192;-1.076;2023-03-01T03:14:29;-0.50;99.90
58568;DHT22;44354;46.192;-1.076;2023-03-01T03:16:55;-0.50;99.90
58568;DHT22;44354;46.192;-1.076;2023-03-01T03:19:21;-0.50;99.90
58568;DHT22;44354;46.192;-1.076;2023-03-01T03:21:46;-0.50;99.90
58568;DHT22;44354;46.192;-1.076;2023-03-01T03:24:12;-0.40;99.90
58568;DHT22;44354;46.192;-1.076;2023-03-01T03:26:38;-0.40;99.90
58568;DHT22;44354;46.192;-1.076;2023-03-01T03:29:03;-0.40;99.90
58568;DHT22;44354;46.192;-1.076;2023-03-01T03:31:29;-0.40;99.90
58568;DHT22;44354;46.192;-1.076;2023-03-01T03:33:55;-0.30;99.90
58568;DHT22;44354;46.192;-1.076;2023-03-01T03:36:23;-0.30;99.90
58568;DHT22;44354;46.192;-1.076;2023-03-01T03:38:49;-0.30;99.90
58568;DHT22;44354;46.192;-1.076;2023-03-01T03:41:16;-0.30;99.90
58568;DHT22;44354;46.192;-1.076;2023-03-01T03:43:42;-0.20;99.90
58568;DHT22;44354;46.192;-1.076;2023-03-01T03:46:10;-0.20;99.90
58568;DHT22;44354;46.192;-1.076;2023-03-01T03:48:39;-0.10;99.90
58568;DHT22;44354;46.192;-1.076;2023-03-01T03:51:05;-0.10;99.90
58568;DHT22;44354;46.192;-1.076;2023-03-01T03:53:31;-0.20;99.90
58568;DHT22;44354;46.192;-1.076;2023-03-01T03:55:59;-0.10;99.90
58568;DHT22;44354;46.192;-1.076;2023-03-01T03:58:25;-0.20;99.90
58568;DHT22;44354;46.192;-1.076;2023-03-01T04:00:54;-0.20;99.90
58568;DHT22;44354;46.192;-1.076;2023-03-01T04:03:22;-0.10;99.90
58568;DHT22;44354;46.192;-1.076;2023-03-01T04:05:48;-0.20;99.90
58568;DHT22;44354;46.192;-1.076;2023-03-01T04:08:16;-0.20;99.90
58568;DHT22;44354;46.192;-1.076;2023-03-01T04:10:46;-0.20;99.90
58568;DHT22;44354;46.192;-1.076;2023-03-01T04:13:15;-0.30;99.90
58568;DHT22;44354;46.192;-1.076;2023-03-01T04:15:41;-0.30;99.90
58568;DHT22;44354;46.192;-1.076;2023-03-01T04:18:10;-0.30;99.90
58568;DHT22;44354;46.192;-1.076;2023-03-01T04:20:37;-0.30;99.90
58568;DHT22;44354;46.192;-1.076;2023-03-01T04:23:21;-0.30;99.90
58568;DHT22;44354;46.192;-1.076;2023-03-01T04:25:50;-0.30;99.90
58568;DHT22;44354;46.192;-1.076;2023-03-01T04:28:35;-0.30;99.90
58568;DHT22;44354;46.192;-1.076;2023-03-01T04:31:07;-0.30;99.90
58568;DHT22;44354;46.192;-1.076;2023-03-01T04:33:57;-0.20;99.90
58568;DHT22;44354;46.192;-1.076;2023-03-01T04:36:25;-0.20;99.90
58568;DHT22;44354;46.192;-1.076;2023-03-01T04:38:51;-0.20;99.90
58568;DHT22;44354;46.192;-1.076;2023-03-01T04:41:20;-0.20;99.90
58568;DHT22;44354;46.192;-1.076;2023-03-01T04:43:46;-0.20;99.90
58568;DHT22;44354;46.192;-1.076;2023-03-01T04:46:14;-0.20;99.90
58568;DHT22;44354;46.192;-1.076;2023-03-01T04:48:41;-0.20;99.90
58568;DHT22;44354;46.192;-1.076;2023-03-01T04:51:07;-0.20;99.90
58568;DHT22;44354;46.192;-1.076;2023-03-01T04:53:34;-0.20;99.90
58568;DHT22;44354;46.192;-1.076;2023-03-01T04:56:02;-0.30;99.90
58568;DHT22;44354;46.192;-1.076;2023-03-01T04:58:28;-0.30;99.90
58568;DHT22;44354;46.192;-1.076;2023-03-01T05:00:54;-0.40;99.90
58568;DHT22;44354;46.192;-1.076;2023-03-01T05:03:21;-0.30;99.90
58568;DHT22;44354;46.192;-1.076;2023-03-01T05:05:49;-0.30;99.90
58568;DHT22;44354;46.192;-1.076;2023-03-01T05:08:15;-0.40;99.90
58568;DHT22;44354;46.192;-1.076;2023-03-01T05:10:46;-0.30;99.90
58568;DHT22;44354;46.192;-1.076;2023-03-01T05:13:13;-0.30;99.90
58568;DHT22;44354;46.192;-1.076;2023-03-01T05:15:39;-0.30;99.90
58568;DHT22;44354;46.192;-1.076;2023-03-01T05:18:05;-0.30;99.90
58568;DHT22;44354;46.192;-1.076;2023-03-01T05:20:37;-0.30;99.90
58568;DHT22;44354;46.192;-1.076;2023-03-01T05:23:03;-0.30;99.90
58568;DHT22;44354;46.192;-1.076;2023-03-01T05:25:33;-0.40;99.90
58568;DHT22;44354;46.192;-1.076;2023-03-01T05:28:03;-0.40;99.90
58568;DHT22;44354;46.192;-1.076;2023-03-01T05:30:33;-0.50;99.90
58568;DHT22;44354;46.192;-1.076;2023-03-01T05:32:59;-0.50;99.90
58568;DHT22;44354;46.192;-1.076;2023-03-01T05:35:25;-0.50;99.90
58568;DHT22;44354;46.192;-1.076;2023-03-01T05:37:51;-0.50;99.90
58568;DHT22;44354;46.192;-1.076;2023-03-01T05:40:19;-0.60;99.90
58568;DHT22;44354;46.192;-1.076;2023-03-01T05:42:47;-0.60;99.90
58568;DHT22;44354;46.192;-1.076;2023-03-01T05:45:14;-0.70;99.90
58568;DHT22;44354;46.192;-1.076;2023-03-01T05:47:41;-0.70;99.90
58568;DHT22;44354;46.192;-1.076;2023-03-01T05:50:22;-0.80;99.90
58568;DHT22;44354;46.192;-1.076;2023-03-01T05:53:01;-0.90;99.90
58568;DHT22;44354;46.192;-1.076;2023-03-01T05:55:28;-0.90;99.90
58568;DHT22;44354;46.192;-1.076;2023-03-01T05:57:54;-0.90;99.90
58568;DHT22;44354;46.192;-1.076;2023-03-01T06:00:20;-1.00;99.90
58568;DHT22;44354;46.192;-1.076;2023-03-01T06:02:48;-1.00;99.90
58568;DHT22;44354;46.192;-1.076;2023-03-01T06:05:14;-1.00;99.90
58568;DHT22;44354;46.192;-1.076;2023-03-01T06:07:41;-1.00;99.90
58568;DHT22;44354;46.192;-1.076;2023-03-01T06:10:09;-0.90;99.90
58568;DHT22;44354;46.192;-1.076;2023-03-01T06:12:37;-0.90;99.90
58568;DHT22;44354;46.192;-1.076;2023-03-01T06:15:04;-0.80;99.90
58568;DHT22;44354;46.192;-1.076;2023-03-01T06:17:31;-0.80;99.90
58568;DHT22;44354;46.192;-1.076;2023-03-01T06:19:57;-0.70;99.90
58568;DHT22;44354;46.192;-1.076;2023-03-01T06:22:23;-0.70;99.90
58568;DHT22;44354;46.192;-1.076;2023-03-01T06:24:49;-0.70;99.90
58568;DHT22;44354;46.192;-1.076;2023-03-01T06:27:15;-0.70;99.90
58568;DHT22;44354;46.192;-1.076;2023-03-01T06:29:41;-0.60;99.90
58568;DHT22;44354;46.192;-1.076;2023-03-01T06:32:07;-0.60;99.90
58568;DHT22;44354;46.192;-1.076;2023-03-01T06:34:33;-0.60;99.90
58568;DHT22;44354;46.192;-1.076;2023-03-01T06:37:00;-0.60;99.90
58568;DHT22;44354;46.192;-1.076;2023-03-01T06:39:28;-0.60;99.90
58568;DHT22;44354;46.192;-1.076;2023-03-01T06:41:54;-0.60;99.90
58568;DHT22;44354;46.192;-1.076;2023-03-01T06:44:19;-0.60;99.90
58568;DHT22;44354;46.192;-1.076;2023-03-01T06:46:45;-0.60;99.90
58568;DHT22;44354;46.192;-1.076;2023-03-01T06:49:11;-0.60;99.90
58568;DHT22;44354;46.192;-1.076;2023-03-01T06:51:36;-0.60;99.90
58568;DHT22;44354;46.192;-1.076;2023-03-01T06:54:04;-0.50;99.90
58568;DHT22;44354;46.192;-1.076;2023-03-01T06:56:30;-0.60;99.90
58568;DHT22;44354;46.192;-1.076;2023-03-01T06:58:56;-0.50;99.90
58568;DHT22;44354;46.192;-1.076;2023-03-01T07:01:22;-0.50;99.90
58568;DHT22;44354;46.192;-1.076;2023-03-01T07:03:47;-0.50;99.90
58568;DHT22;44354;46.192;-1.076;2023-03-01T07:06:13;-0.50;99.90
58568;DHT22;44354;46.192;-1.076;2023-03-01T07:08:39;-0.40;99.90
58568;DHT22;44354;46.192;-1.076;2023-03-01T07:11:04;-0.30;99.90
58568;DHT22;44354;46.192;-1.076;2023-03-01T07:13:31;-0.30;99.90
58568;DHT22;44354;46.192;-1.076;2023-03-01T07:15:57;-0.20;99.90
58568;DHT22;44354;46.192;-1.076;2023-03-01T07:18:23;-0.20;99.90
58568;DHT22;44354;46.192;-1.076;2023-03-01T07:20:49;-0.20;99.90
58568;DHT22;44354;46.192;-1.076;2023-03-01T07:23:15;-0.10;99.90
58568;DHT22;44354;46.192;-1.076;2023-03-01T07:25:41;-0.10;99.90
58568;DHT22;44354;46.192;-1.076;2023-03-01T07:28:07;-0.10;99.90
58568;DHT22;44354;46.192;-1.076;2023-03-01T07:30:32;0.00;99.90
58568;DHT22;44354;46.192;-1.076;2023-03-01T07:32:58;0.00;99.90
58568;DHT22;44354;46.192;-1.076;2023-03-01T07:35:27;0.00;99.90
58568;DHT22;44354;46.192;-1.076;2023-03-01T07:37:53;0.00;99.90
58568;DHT22;44354;46.192;-1.076;2023-03-01T07:40:19;0.00;99.90
58568;DHT22;44354;46.192;-1.076;2023-03-01T07:42:45;0.00;99.90
58568;DHT22;44354;46.192;-1.076;2023-03-01T07:45:11;0.00;99.90
58568;DHT22;44354;46.192;-1.076;2023-03-01T07:47:39;0.00;99.90
58568;DHT22;44354;46.192;-1.076;2023-03-01T07:50:05;0.00;99.90
58568;DHT22;44354;46.192;-1.076;2023-03-01T07:52:31;0.10;99.90
58568;DHT22;44354;46.192;-1.076;2023-03-01T07:54:57;0.20;99.90
58568;DHT22;44354;46.192;-1.076;2023-03-01T07:57:23;0.20;99.90
58568;DHT22;44354;46.192;-1.076;2023-03-01T07:59:49;0.30;99.90
58568;DHT22;44354;46.192;-1.076;2023-03-01T08:02:14;0.30;99.90
58568;DHT22;44354;46.192;-1.076;2023-03-01T08:04:41;0.40;99.90
58568;DHT22;44354;46.192;-1.076;2023-03-01T08:07:07;0.50;99.90
58568;DHT22;44354;46.192;-1.076;2023-03-01T08:09:36;0.60;99.90
58568;DHT22;44354;46.192;-1.076;2023-03-01T08:12:03;0.70;99.90
58568;DHT22;44354;46.192;-1.076;2023-03-01T08:14:30;1.00;99.90
58568;DHT22;44354;46.192;-1.076;2023-03-01T08:16:56;1.20;99.90
58568;DHT22;44354;46.192;-1.076;2023-03-01T08:19:22;1.40;99.90
58568;DHT22;44354;46.192;-1.076;2023-03-01T08:21:47;1.50;99.90
58568;DHT22;44354;46.192;-1.076;2023-03-01T08:24:13;1.70;99.90
58568;DHT22;44354;46.192;-1.076;2023-03-01T08:26:39;1.80;99.90
58568;DHT22;44354;46.192;-1.076;2023-03-01T08:29:05;1.80;99.90
58568;DHT22;44354;46.192;-1.076;2023-03-01T08:31:36;1.70;99.90
58568;DHT22;44354;46.192;-1.076;2023-03-01T08:34:06;1.70;99.90
58568;DHT22;44354;46.192;-1.076;2023-03-01T08:36:34;1.80;99.90
58568;DHT22;44354;46.192;-1.076;2023-03-01T08:39:01;1.90;99.90
58568;DHT22;44354;46.192;-1.076;2023-03-01T08:41:27;1.90;99.90
58568;DHT22;44354;46.192;-1.076;2023-03-01T08:43:53;2.00;99.90
58568;DHT22;44354;46.192;-1.076;2023-03-01T08:46:31;2.00;99.90
58568;DHT22;44354;46.192;-1.076;2023-03-01T08:48:57;2.10;99.90
58568;DHT22;44354;46.192;-1.076;2023-03-01T08:51:25;2.30;99.90
58568;DHT22;44354;46.192;-1.076;2023-03-01T08:53:51;2.30;99.90
58568;DHT22;44354;46.192;-1.076;2023-03-01T08:56:18;2.50;99.90
58568;DHT22;44354;46.192;-1.076;2023-03-01T08:58:46;2.40;99.90
58568;DHT22;44354;46.192;-1.076;2023-03-01T09:01:14;2.50;99.90
58568;DHT22;44354;46.192;-1.076;2023-03-01T09:03:41;2.60;99.90
58568;DHT22;44354;46.192;-1.076;2023-03-01T09:06:07;2.80;99.90
58568;DHT22;44354;46.192;-1.076;2023-03-01T09:08:38;2.90;99.90
58568;DHT22;44354;46.192;-1.076;2023-03-01T09:11:06;3.00;99.90
58568;DHT22;44354;46.192;-1.076;2023-03-01T09:13:32;2.90;99.90
58568;DHT22;44354;46.192;-1.076;2023-03-01T09:16:00;3.00;99.90
58568;DHT22;44354;46.192;-1.076;2023-03-01T09:18:27;3.10;99.90
58568;DHT22;44354;46.192;-1.076;2023-03-01T09:20:52;3.20;99.90
58568;DHT22;44354;46.192;-1.076;2023-03-01T09:23:20;3.30;99.90
58568;DHT22;44354;46.192;-1.076;2023-03-01T09:25:46;3.30;99.90
58568;DHT22;44354;46.192;-1.076;2023-03-01T09:28:12;3.30;99.90
58568;DHT22;44354;46.192;-1.076;2023-03-01T09:30:38;3.50;99.90
58568;DHT22;44354;46.192;-1.076;2023-03-01T09:33:03;3.50;99.90
58568;DHT22;44354;46.192;-1.076;2023-03-01T09:35:30;3.60;99.90
58568;DHT22;44354;46.192;-1.076;2023-03-01T09:37:55;3.80;99.90
58568;DHT22;44354;46.192;-1.076;2023-03-01T09:40:24;3.80;99.90
58568;DHT22;44354;46.192;-1.076;2023-03-01T09:43:15;3.90;99.90
58568;DHT22;44354;46.192;-1.076;2023-03-01T09:45:45;4.00;99.90
58568;DHT22;44354;46.192;-1.076;2023-03-01T09:48:16;4.20;99.90
58568;DHT22;44354;46.192;-1.076;2023-03-01T09:50:44;4.30;99.90
58568;DHT22;44354;46.192;-1.076;2023-03-01T09:53:17;4.20;99.90
58568;DHT22;44354;46.192;-1.076;2023-03-01T09:56:03;4.10;99.90
58568;DHT22;44354;46.192;-1.076;2023-03-01T10:06:52;3.90;99.90
58568;DHT22;44354;46.192;-1.076;2023-03-01T10:09:21;3.80;99.90
58568;DHT22;44354;46.192;-1.076;2023-03-01T10:11:54;4.10;99.90
58568;DHT22;44354;46.192;-1.076;2023-03-01T10:14:51;4.20;99.90
58568;DHT22;44354;46.192;-1.076;2023-03-01T10:17:50;4.20;99.90
58568;DHT22;44354;46.192;-1.076;2023-03-01T10:20:21;4.40;99.90
58568;DHT22;44354;46.192;-1.076;2023-03-01T10:22:48;4.30;99.90
58568;DHT22;44354;46.192;-1.076;2023-03-01T10:28:01;4.30;99.90
58568;DHT22;44354;46.192;-1.076;2023-03-01T10:30:38;4.50;99.90
58568;DHT22;44354;46.192;-1.076;2023-03-01T10:33:32;4.30;99.90
58568;DHT22;44354;46.192;-1.076;2023-03-01T10:35:58;4.50;99.90
58568;DHT22;44354;46.192;-1.076;2023-03-01T10:38:24;4.50;99.90
58568;DHT22;44354;46.192;-1.076;2023-03-01T10:43:23;4.50;99.90
58568;DHT22;44354;46.192;-1.076;2023-03-01T10:45:51;4.70;99.90
58568;DHT22;44354;46.192;-1.076;2023-03-01T10:48:23;4.70;96.50
58568;DHT22;44354;46.192;-1.076;2023-03-01T10:51:12;4.90;99.90
58568;DHT22;44354;46.192;-1.076;2023-03-01T10:53:48;5.10;97.70
58568;DHT22;44354;46.192;-1.076;2023-03-01T10:56:15;5.10;90.60
58568;DHT22;44354;46.192;-1.076;2023-03-01T10:59:00;5.10;90.10
58568;DHT22;44354;46.192;-1.076;2023-03-01T11:01:27;5.20;92.80
58568;DHT22;44354;46.192;-1.076;2023-03-01T11:06:34;5.30;79.50
58568;DHT22;44354;46.192;-1.076;2023-03-01T11:09:19;5.30;89.70
58568;DHT22;44354;46.192;-1.076;2023-03-01T11:11:45;5.40;86.90
58568;DHT22;44354;46.192;-1.076;2023-03-01T11:14:24;5.40;83.50
58568;DHT22;44354;46.192;-1.076;2023-03-01T11:17:13;5.50;91.20
58568;DHT22;44354;46.192;-1.076;2023-03-01T11:19:40;5.70;87.90
58568;DHT22;44354;46.192;-1.076;2023-03-01T11:22:16;5.80;85.00
58568;DHT22;44354;46.192;-1.076;2023-03-01T11:24:49;5.80;80.50
58568;DHT22;44354;46.192;-1.076;2023-03-01T11:27:25;5.80;69.10
58568;DHT22;44354;46.192;-1.076;2023-03-01T11:35:35;5.70;71.20
58568;DHT22;44354;46.192;-1.076;2023-03-01T12:06:07;6.10;43.70
58568;DHT22;44354;46.192;-1.076;2023-03-01T12:19:26;6.20;49.10
58568;DHT22;44354;46.192;-1.076;2023-03-01T12:30:25;6.40;45.50
58568;DHT22;44354;46.192;-1.076;2023-03-01T12:33:34;6.60;43.70
58568;DHT22;44354;46.192;-1.076;2023-03-01T12:36:21;6.80;45.40
58568;DHT22;44354;46.192;-1.076;2023-03-01T12:51:38;6.80;29.80
58568;DHT22;44354;46.192;-1.076;2023-03-01T12:54:15;6.70;28.50
58568;DHT22;44354;46.192;-1.076;2023-03-01T12:56:41;6.90;38.90
58568;DHT22;44354;46.192;-1.076;2023-03-01T13:02:49;7.00;29.40
58568;DHT22;44354;46.192;-1.076;2023-03-01T13:08:11;7.00;26.00
58568;DHT22;44354;46.192;-1.076;2023-03-01T13:10:58;7.20;29.20
58568;DHT22;44354;46.192;-1.076;2023-03-01T13:13:27;7.40;30.50
58568;DHT22;44354;46.192;-1.076;2023-03-01T13:15:54;7.50;26.70
58568;DHT22;44354;46.192;-1.076;2023-03-01T13:20:52;7.50;27.20
58568;DHT22;44354;46.192;-1.076;2023-03-01T13:28:48;7.40;19.30
58568;DHT22;44354;46.192;-1.076;2023-03-01T13:33:47;7.70;23.60
58568;DHT22;44354;46.192;-1.076;2023-03-01T13:44:30;7.70;21.90
58568;DHT22;44354;46.192;-1.076;2023-03-01T13:47:14;7.70;22.40
58568;DHT22;44354;46.192;-1.076;2023-03-01T13:57:42;7.90;21.20
58568;DHT22;44354;46.192;-1.076;2023-03-01T14:00:34;7.80;18.50
58568;DHT22;44354;46.192;-1.076;2023-03-01T14:03:17;7.60;14.60
58568;DHT22;44354;46.192;-1.076;2023-03-01T14:06:00;7.30;13.20
58568;DHT22;44354;46.192;-1.076;2023-03-01T14:08:28;7.20;17.30
58568;DHT22;44354;46.192;-1.076;2023-03-01T14:19:19;7.60;31.40
58568;DHT22;44354;46.192;-1.076;2023-03-01T14:21:46;7.70;27.00
58568;DHT22;44354;46.192;-1.076;2023-03-01T14:24:21;7.80;25.20
58568;DHT22;44354;46.192;-1.076;2023-03-01T14:26:49;7.80;18.10
58568;DHT22;44354;46.192;-1.076;2023-03-01T14:29:35;7.80;21.90
58568;DHT22;44354;46.192;-1.076;2023-03-01T14:32:30;7.80;13.90
58568;DHT22;44354;46.192;-1.076;2023-03-01T14:34:58;7.80;16.00
58568;DHT22;44354;46.192;-1.076;2023-03-01T14:39:52;7.80;12.70
58568;DHT22;44354;46.192;-1.076;2023-03-01T14:42:20;7.80;11.80
58568;DHT22;44354;46.192;-1.076;2023-03-01T14:44:52;7.90;14.00
58568;DHT22;44354;46.192;-1.076;2023-03-01T14:47:34;8.00;10.50
58568;DHT22;44354;46.192;-1.076;2023-03-01T14:50:05;8.10;12.70
58568;DHT22;44354;46.192;-1.076;2023-03-01T14:52:37;8.20;12.20
58568;DHT22;44354;46.192;-1.076;2023-03-01T14:55:20;8.30;9.20
58568;DHT22;44354;46.192;-1.076;2023-03-01T14:57:50;8.20;5.50
58568;DHT22;44354;46.192;-1.076;2023-03-01T15:00:30;8.20;8.60
58568;DHT22;44354;46.192;-1.076;2023-03-01T15:03:02;8.10;6.70
58568;DHT22;44354;46.192;-1.076;2023-03-01T15:05:32;8.10;4.90
58568;DHT22;44354;46.192;-1.076;2023-03-01T15:08:01;8.10;4.20
58568;DHT22;44354;46.192;-1.076;2023-03-01T15:10:34;8.20;6.60
58568;DHT22;44354;46.192;-1.076;2023-03-01T15:13:21;8.20;7.60
58568;DHT22;44354;46.192;-1.076;2023-03-01T15:15:47;8.00;4.60
58568;DHT22;44354;46.192;-1.076;2023-03-01T15:18:21;7.90;6.30
58568;DHT22;44354;46.192;-1.076;2023-03-01T15:20:48;7.80;7.30
58568;DHT22;44354;46.192;-1.076;2023-03-01T15:23:22;7.90;8.20
58568;DHT22;44354;46.192;-1.076;2023-03-01T15:25:50;8.00;5.40
58568;DHT22;44354;46.192;-1.076;2023-03-01T15:28:33;7.90;6.40
58568;DHT22;44354;46.192;-1.076;2023-03-01T15:31:23;7.80;7.80
58568;DHT22;44354;46.192;-1.076;2023-03-01T15:33:49;7.50;4.80
58568;DHT22;44354;46.192;-1.076;2023-03-01T15:36:36;7.30;10.20
58568;DHT22;44354;46.192;-1.076;2023-03-01T15:39:04;7.20;14.50
58568;DHT22;44354;46.192;-1.076;2023-03-01T15:41:47;7.20;17.40
58568;DHT22;44354;46.192;-1.076;2023-03-01T15:44:16;7.20;16.90
58568;DHT22;44354;46.192;-1.076;2023-03-01T15:46:46;7.10;15.30
58568;DHT22;44354;46.192;-1.076;2023-03-01T15:49:33;7.00;13.20
58568;DHT22;44354;46.192;-1.076;2023-03-01T15:52:01;7.20;13.60
58568;DHT22;44354;46.192;-1.076;2023-03-01T15:54:28;7.30;12.90
58568;DHT22;44354;46.192;-1.076;2023-03-01T15:56:55;7.30;10.60
58568;DHT22;44354;46.192;-1.076;2023-03-01T15:59:20;7.30;11.20
58568;DHT22;44354;46.192;-1.076;2023-03-01T16:01:48;7.20;11.70
58568;DHT22;44354;46.192;-1.076;2023-03-01T16:04:16;7.00;15.10
58568;DHT22;44354;46.192;-1.076;2023-03-01T16:06:52;6.90;17.70
58568;DHT22;44354;46.192;-1.076;2023-03-01T16:09:25;6.80;21.10
58568;DHT22;44354;46.192;-1.076;2023-03-01T16:11:52;6.80;21.90
58568;DHT22;44354;46.192;-1.076;2023-03-01T16:14:18;6.90;18.70
58568;DHT22;44354;46.192;-1.076;2023-03-01T16:16:44;7.00;19.20
58568;DHT22;44354;46.192;-1.076;2023-03-01T16:19:10;7.10;21.50
58568;DHT22;44354;46.192;-1.076;2023-03-01T16:21:36;7.20;18.80
58568;DHT22;44354;46.192;-1.076;2023-03-01T16:24:03;7.20;15.40
58568;DHT22;44354;46.192;-1.076;2023-03-01T16:26:29;7.20;13.90
58568;DHT22;44354;46.192;-1.076;2023-03-01T16:28:56;7.10;17.30
58568;DHT22;44354;46.192;-1.076;2023-03-01T16:31:22;7.10;19.50
58568;DHT22;44354;46.192;-1.076;2023-03-01T16:33:49;7.00;20.90
58568;DHT22;44354;46.192;-1.076;2023-03-01T16:36:18;7.00;19.20
58568;DHT22;44354;46.192;-1.076;2023-03-01T16:38:45;7.00;17.50
58568;DHT22;44354;46.192;-1.076;2023-03-01T16:41:15;7.00;17.30
58568;DHT22;44354;46.192;-1.076;2023-03-01T16:43:44;7.00;14.70
58568;DHT22;44354;46.192;-1.076;2023-03-01T16:46:21;7.00;16.00
58568;DHT22;44354;46.192;-1.076;2023-03-01T16:48:47;7.00;16.40
58568;DHT22;44354;46.192;-1.076;2023-03-01T16:51:14;7.00;16.50
58568;DHT22;44354;46.192;-1.076;2023-03-01T16:53:40;6.90;17.00
58568;DHT22;44354;46.192;-1.076;2023-03-01T16:56:07;6.90;16.80
58568;DHT22;44354;46.192;-1.076;2023-03-01T16:58:34;6.80;18.50
58568;DHT22;44354;46.192;-1.076;2023-03-01T17:01:08;6.80;19.90
58568;DHT22;44354;46.192;-1.076;2023-03-01T17:03:34;6.80;20.90
58568;DHT22;44354;46.192;-1.076;2023-03-01T17:06:08;6.60;20.00
58568;DHT22;44354;46.192;-1.076;2023-03-01T17:08:35;6.60;20.00
58568;DHT22;44354;46.192;-1.076;2023-03-01T17:11:06;6.50;22.10
58568;DHT22;44354;46.192;-1.076;2023-03-01T17:13:33;6.50;23.50
58568;DHT22;44354;46.192;-1.076;2023-03-01T17:15:59;6.40;24.30
58568;DHT22;44354;46.192;-1.076;2023-03-01T17:18:25;6.40;26.20
58568;DHT22;44354;46.192;-1.076;2023-03-01T17:20:51;6.30;28.50
58568;DHT22;44354;46.192;-1.076;2023-03-01T17:23:20;6.20;30.70
58568;DHT22;44354;46.192;-1.076;2023-03-01T17:25:45;6.10;33.70
58568;DHT22;44354;46.192;-1.076;2023-03-01T17:28:12;6.00;37.50
58568;DHT22;44354;46.192;-1.076;2023-03-01T17:30:42;5.90;38.00
58568;DHT22;44354;46.192;-1.076;2023-03-01T17:33:08;5.80;39.80
58568;DHT22;44354;46.192;-1.076;2023-03-01T17:35:33;5.80;42.90
58568;DHT22;44354;46.192;-1.076;2023-03-01T17:38:02;5.60;45.60
58568;DHT22;44354;46.192;-1.076;2023-03-01T17:40:31;5.50;49.60
58568;DHT22;44354;46.192;-1.076;2023-03-01T17:43:16;5.50;51.20
58568;DHT22;44354;46.192;-1.076;2023-03-01T17:45:45;5.40;53.10
58568;DHT22;44354;46.192;-1.076;2023-03-01T17:48:16;5.30;55.60
58568;DHT22;44354;46.192;-1.076;2023-03-01T17:50:42;5.20;59.60
58568;DHT22;44354;46.192;-1.076;2023-03-01T17:53:08;5.10;62.70
58568;DHT22;44354;46.192;-1.076;2023-03-01T17:55:39;5.00;64.40